sensor_id;sensor_type;location;lat;lon;timestamp;P1;durP1;ratioP1;P2;durP2;ratioP2
13568;SDS011;6856;51.460;7.158;2023-07-24T00:01:26;3.00;;;1.80;;
13568;SDS011;6856;51.460;7.158;2023-07-24T00:04:00;2.00;;;1.57;;
13568;SDS011;6856;51.460;7.158;2023-07-24T00:06:34;4.10;;;1.90;;
13568;SDS011;6856;51.460;7.158;2023-07-24T00:09:09;3.73;;;1.50;;
13568;SDS011;6856;51.460;7.158;2023-07-24T00:11:44;3.03;;;1.43;;
13568;SDS011;6856;51.460;7.158;2023-07-24T00:14:17;2.50;;;1.37;;
13568;SDS011;6856;51.460;7.158;2023-07-24T00:16:51;2.00;;;1.47;;
13568;SDS011;6856;51.460;7.158;2023-07-24T00:19:26;2.60;;;1.30;;
13568;SDS011;6856;51.460;7.158;2023-07-24T00:21:59;1.75;;;1.15;;
13568;SDS011;6856;51.460;7.158;2023-07-24T00:24:33;3.93;;;1.73;;
13568;SDS011;6856;51.460;7.158;2023-07-24T00:27:09;1.80;;;1.37;;
13568;SDS011;6856;51.460;7.158;2023-07-24T00:29:42;3.80;;;1.83;;
13568;SDS011;6856;51.460;7.158;2023-07-24T00:32:17;2.17;;;1.70;;
13568;SDS011;6856;51.460;7.158;2023-07-24T00:34:50;2.30;;;1.80;;
13568;SDS011;6856;51.460;7.158;2023-07-24T00:37:24;2.60;;;1.80;;
13568;SDS011;6856;51.460;7.158;2023-07-24T00:39:58;5.13;;;1.85;;
13568;SDS011;6856;51.460;7.158;2023-07-24T00:42:37;2.47;;;1.57;;
13568;SDS011;6856;51.460;7.158;2023-07-24T00:45:11;2.63;;;1.53;;
13568;SDS011;6856;51.460;7.158;2023-07-24T00:47:45;3.07;;;1.63;;
13568;SDS011;6856;51.460;7.158;2023-07-24T00:50:20;1.87;;;1.43;;
13568;SDS011;6856;51.460;7.158;2023-07-24T00:52:54;2.28;;;1.63;;
13568;SDS011;6856;51.460;7.158;2023-07-24T00:55:28;1.73;;;1.40;;
13568;SDS011;6856;51.460;7.158;2023-07-24T00:58:04;2.10;;;1.70;;
13568;SDS011;6856;51.460;7.158;2023-07-24T01:00:39;3.13;;;1.53;;
13568;SDS011;6856;51.460;7.158;2023-07-24T01:03:13;2.47;;;1.63;;
13568;SDS011;6856;51.460;7.158;2023-07-24T01:05:48;2.20;;;1.63;;
13568;SDS011;6856;51.460;7.158;2023-07-24T01:08:22;4.00;;;1.70;;
13568;SDS011;6856;51.460;7.158;2023-07-24T01:10:56;2.67;;;1.83;;
13568;SDS011;6856;51.460;7.158;2023-07-24T01:13:40;2.37;;;2.00;;
13568;SDS011;6856;51.460;7.158;2023-07-24T01:16:21;2.73;;;1.80;;
13568;SDS011;6856;51.460;7.158;2023-07-24T01:18:57;3.70;;;1.87;;
13568;SDS011;6856;51.460;7.158;2023-07-24T01:21:38;3.10;;;1.63;;
13568;SDS011;6856;51.460;7.158;2023-07-24T01:24:33;2.20;;;1.77;;
13568;SDS011;6856;51.460;7.158;2023-07-24T01:27:24;2.50;;;1.57;;
13568;SDS011;6856;51.460;7.158;2023-07-24T01:29:58;3.90;;;1.60;;
13568;SDS011;6856;51.460;7.158;2023-07-24T01:32:32;2.00;;;1.50;;
13568;SDS011;6856;51.460;7.158;2023-07-24T01:35:06;2.63;;;1.87;;
13568;SDS011;6856;51.460;7.158;2023-07-24T01:37:40;2.80;;;1.90;;
13568;SDS011;6856;51.460;7.158;2023-07-24T01:40:16;1.70;;;1.53;;
13568;SDS011;6856;51.460;7.158;2023-07-24T01:42:53;2.00;;;1.47;;
13568;SDS011;6856;51.460;7.158;2023-07-24T01:45:27;1.77;;;1.50;;
13568;SDS011;6856;51.460;7.158;2023-07-24T01:48:01;2.47;;;1.73;;
13568;SDS011;6856;51.460;7.158;2023-07-24T01:50:37;2.03;;;1.50;;
13568;SDS011;6856;51.460;7.158;2023-07-24T01:53:11;4.43;;;1.60;;
13568;SDS011;6856;51.460;7.158;2023-07-24T01:55:45;3.17;;;1.90;;
13568;SDS011;6856;51.460;7.158;2023-07-24T01:58:20;2.20;;;1.47;;
13568;SDS011;6856;51.460;7.158;2023-07-24T02:00:55;2.30;;;1.70;;
13568;SDS011;6856;51.460;7.158;2023-07-24T02:03:28;2.33;;;1.50;;
13568;SDS011;6856;51.460;7.158;2023-07-24T02:06:03;1.83;;;1.37;;
13568;SDS011;6856;51.460;7.158;2023-07-24T02:08:37;3.07;;;1.73;;
13568;SDS011;6856;51.460;7.158;2023-07-24T02:11:11;2.57;;;1.80;;
13568;SDS011;6856;51.460;7.158;2023-07-24T02:13:46;2.10;;;1.77;;
13568;SDS011;6856;51.460;7.158;2023-07-24T02:16:20;2.83;;;1.90;;
13568;SDS011;6856;51.460;7.158;2023-07-24T02:18:54;2.13;;;1.63;;
13568;SDS011;6856;51.460;7.158;2023-07-24T02:21:29;2.43;;;1.53;;
13568;SDS011;6856;51.460;7.158;2023-07-24T02:24:03;2.70;;;1.70;;
13568;SDS011;6856;51.460;7.158;2023-07-24T02:26:39;3.40;;;1.73;;
13568;SDS011;6856;51.460;7.158;2023-07-24T02:29:14;2.70;;;1.67;;
13568;SDS011;6856;51.460;7.158;2023-07-24T02:31:48;2.77;;;1.60;;
13568;SDS011;6856;51.460;7.158;2023-07-24T02:34:23;2.60;;;1.53;;
13568;SDS011;6856;51.460;7.158;2023-07-24T02:36:58;2.37;;;1.77;;
13568;SDS011;6856;51.460;7.158;2023-07-24T02:39:31;2.83;;;1.80;;
13568;SDS011;6856;51.460;7.158;2023-07-24T02:42:05;5.60;;;2.40;;
13568;SDS011;6856;51.460;7.158;2023-07-24T02:44:41;1.90;;;1.43;;
13568;SDS011;6856;51.460;7.158;2023-07-24T02:47:16;2.60;;;1.83;;
13568;SDS011;6856;51.460;7.158;2023-07-24T02:49:50;2.93;;;1.93;;
13568;SDS011;6856;51.460;7.158;2023-07-24T02:52:24;2.43;;;2.07;;
13568;SDS011;6856;51.460;7.158;2023-07-24T02:54:58;3.53;;;1.80;;
13568;SDS011;6856;51.460;7.158;2023-07-24T02:57:32;2.87;;;2.13;;
13568;SDS011;6856;51.460;7.158;2023-07-24T03:00:10;2.27;;;1.90;;
13568;SDS011;6856;51.460;7.158;2023-07-24T03:02:45;3.80;;;2.27;;
13568;SDS011;6856;51.460;7.158;2023-07-24T03:05:19;4.40;;;2.30;;
13568;SDS011;6856;51.460;7.158;2023-07-24T03:07:53;3.77;;;2.40;;
13568;SDS011;6856;51.460;7.158;2023-07-24T03:10:27;3.07;;;2.03;;
13568;SDS011;6856;51.460;7.158;2023-07-24T03:13:00;4.17;;;2.20;;
13568;SDS011;6856;51.460;7.158;2023-07-24T03:15:36;3.27;;;2.30;;
13568;SDS011;6856;51.460;7.158;2023-07-24T03:18:13;3.07;;;2.30;;
13568;SDS011;6856;51.460;7.158;2023-07-24T03:20:47;2.83;;;2.00;;
13568;SDS011;6856;51.460;7.158;2023-07-24T03:23:21;4.23;;;2.50;;
13568;SDS011;6856;51.460;7.158;2023-07-24T03:25:56;2.87;;;2.17;;
13568;SDS011;6856;51.460;7.158;2023-07-24T03:28:30;3.73;;;2.20;;
13568;SDS011;6856;51.460;7.158;2023-07-24T03:31:06;2.63;;;2.00;;
13568;SDS011;6856;51.460;7.158;2023-07-24T03:33:40;3.90;;;2.37;;
13568;SDS011;6856;51.460;7.158;2023-07-24T03:36:14;3.57;;;2.20;;
13568;SDS011;6856;51.460;7.158;2023-07-24T03:38:49;3.27;;;2.43;;
13568;SDS011;6856;51.460;7.158;2023-07-24T03:41:22;3.53;;;2.20;;
13568;SDS011;6856;51.460;7.158;2023-07-24T03:43:56;3.03;;;2.30;;
13568;SDS011;6856;51.460;7.158;2023-07-24T03:46:32;3.70;;;2.40;;
13568;SDS011;6856;51.460;7.158;2023-07-24T03:49:07;2.90;;;2.30;;
13568;SDS011;6856;51.460;7.158;2023-07-24T03:51:42;3.10;;;2.17;;
13568;SDS011;6856;51.460;7.158;2023-07-24T03:54:16;3.37;;;2.30;;
13568;SDS011;6856;51.460;7.158;2023-07-24T03:56:49;4.20;;;2.30;;
13568;SDS011;6856;51.460;7.158;2023-07-24T03:59:23;2.60;;;2.40;;
13568;SDS011;6856;51.460;7.158;2023-07-24T04:01:58;2.87;;;2.27;;
13568;SDS011;6856;51.460;7.158;2023-07-24T04:04:32;3.57;;;2.20;;
13568;SDS011;6856;51.460;7.158;2023-07-24T04:07:08;3.63;;;2.33;;
13568;SDS011;6856;51.460;7.158;2023-07-24T04:09:42;3.47;;;2.33;;
13568;SDS011;6856;51.460;7.158;2023-07-24T04:12:15;3.47;;;2.37;;
13568;SDS011;6856;51.460;7.158;2023-07-24T04:15:00;3.80;;;2.40;;
13568;SDS011;6856;51.460;7.158;2023-07-24T04:17:36;3.10;;;2.00;;
13568;SDS011;6856;51.460;7.158;2023-07-24T04:20:10;2.90;;;2.00;;
13568;SDS011;6856;51.460;7.158;2023-07-24T04:22:44;3.17;;;2.37;;
13568;SDS011;6856;51.460;7.158;2023-07-24T04:25:18;3.30;;;2.13;;
13568;SDS011;6856;51.460;7.158;2023-07-24T04:27:53;3.77;;;2.20;;
13568;SDS011;6856;51.460;7.158;2023-07-24T04:30:26;2.80;;;2.10;;
13568;SDS011;6856;51.460;7.158;2023-07-24T04:33:01;3.47;;;2.20;;
13568;SDS011;6856;51.460;7.158;2023-07-24T04:35:35;4.10;;;2.50;;
13568;SDS011;6856;51.460;7.158;2023-07-24T04:38:11;4.37;;;2.43;;
13568;SDS011;6856;51.460;7.158;2023-07-24T04:40:45;2.80;;;1.97;;
13568;SDS011;6856;51.460;7.158;2023-07-24T04:43:19;2.73;;;2.13;;
13568;SDS011;6856;51.460;7.158;2023-07-24T04:45:53;5.30;;;2.70;;
13568;SDS011;6856;51.460;7.158;2023-07-24T04:48:28;3.20;;;2.20;;
13568;SDS011;6856;51.460;7.158;2023-07-24T04:51:03;4.83;;;2.53;;
13568;SDS011;6856;51.460;7.158;2023-07-24T04:53:36;3.63;;;2.23;;
13568;SDS011;6856;51.460;7.158;2023-07-24T04:56:10;3.33;;;2.37;;
13568;SDS011;6856;51.460;7.158;2023-07-24T04:58:46;3.43;;;2.30;;
13568;SDS011;6856;51.460;7.158;2023-07-24T05:01:20;2.80;;;2.33;;
13568;SDS011;6856;51.460;7.158;2023-07-24T05:03:56;3.80;;;2.23;;
13568;SDS011;6856;51.460;7.158;2023-07-24T05:06:30;3.70;;;2.50;;
13568;SDS011;6856;51.460;7.158;2023-07-24T05:09:03;3.60;;;2.50;;
13568;SDS011;6856;51.460;7.158;2023-07-24T05:11:37;3.87;;;2.60;;
13568;SDS011;6856;51.460;7.158;2023-07-24T05:14:11;3.40;;;2.30;;
13568;SDS011;6856;51.460;7.158;2023-07-24T05:16:45;2.70;;;2.10;;
13568;SDS011;6856;51.460;7.158;2023-07-24T05:19:20;3.13;;;2.23;;
13568;SDS011;6856;51.460;7.158;2023-07-24T05:21:54;3.33;;;2.30;;
13568;SDS011;6856;51.460;7.158;2023-07-24T05:24:28;4.13;;;2.50;;
13568;SDS011;6856;51.460;7.158;2023-07-24T05:27:02;2.97;;;2.17;;
13568;SDS011;6856;51.460;7.158;2023-07-24T05:29:37;3.97;;;2.80;;
13568;SDS011;6856;51.460;7.158;2023-07-24T05:32:11;3.63;;;2.67;;
13568;SDS011;6856;51.460;7.158;2023-07-24T05:34:46;3.83;;;2.87;;
13568;SDS011;6856;51.460;7.158;2023-07-24T05:37:21;4.30;;;2.80;;
13568;SDS011;6856;51.460;7.158;2023-07-24T05:39:55;4.90;;;2.70;;
13568;SDS011;6856;51.460;7.158;2023-07-24T05:42:29;4.10;;;2.37;;
13568;SDS011;6856;51.460;7.158;2023-07-24T05:45:05;4.07;;;2.63;;
13568;SDS011;6856;51.460;7.158;2023-07-24T05:47:40;4.07;;;2.77;;
13568;SDS011;6856;51.460;7.158;2023-07-24T05:50:16;3.63;;;2.40;;
13568;SDS011;6856;51.460;7.158;2023-07-24T05:52:50;5.80;;;3.10;;
13568;SDS011;6856;51.460;7.158;2023-07-24T05:55:23;4.00;;;2.80;;
13568;SDS011;6856;51.460;7.158;2023-07-24T05:57:58;5.43;;;2.83;;
13568;SDS011;6856;51.460;7.158;2023-07-24T06:00:32;3.90;;;2.90;;
13568;SDS011;6856;51.460;7.158;2023-07-24T06:03:07;5.30;;;3.03;;
13568;SDS011;6856;51.460;7.158;2023-07-24T06:05:43;4.40;;;3.00;;
13568;SDS011;6856;51.460;7.158;2023-07-24T06:08:17;3.33;;;2.50;;
13568;SDS011;6856;51.460;7.158;2023-07-24T06:10:51;4.60;;;3.03;;
13568;SDS011;6856;51.460;7.158;2023-07-24T07:22:06;3.50;;;2.27;;
13568;SDS011;6856;51.460;7.158;2023-07-24T07:24:40;3.90;;;2.50;;
13568;SDS011;6856;51.460;7.158;2023-07-24T07:27:19;3.33;;;2.30;;
13568;SDS011;6856;51.460;7.158;2023-07-24T07:29:52;4.40;;;2.67;;
13568;SDS011;6856;51.460;7.158;2023-07-24T07:32:26;4.53;;;3.07;;
13568;SDS011;6856;51.460;7.158;2023-07-24T07:35:00;4.80;;;2.67;;
13568;SDS011;6856;51.460;7.158;2023-07-24T07:45:30;3.30;;;2.30;;
13568;SDS011;6856;51.460;7.158;2023-07-24T07:48:05;3.17;;;2.17;;
13568;SDS011;6856;51.460;7.158;2023-07-24T07:50:41;3.27;;;2.50;;
13568;SDS011;6856;51.460;7.158;2023-07-24T07:53:16;2.75;;;2.03;;
13568;SDS011;6856;51.460;7.158;2023-07-24T07:55:54;3.77;;;2.47;;
13568;SDS011;6856;51.460;7.158;2023-07-24T07:58:29;3.60;;;2.53;;
13568;SDS011;6856;51.460;7.158;2023-07-24T08:01:03;4.93;;;2.90;;
13568;SDS011;6856;51.460;7.158;2023-07-24T08:03:39;4.07;;;2.63;;
13568;SDS011;6856;51.460;7.158;2023-07-24T08:06:13;3.53;;;2.40;;
13568;SDS011;6856;51.460;7.158;2023-07-24T08:08:48;4.07;;;2.42;;
13568;SDS011;6856;51.460;7.158;2023-07-24T08:11:22;4.40;;;2.53;;
13568;SDS011;6856;51.460;7.158;2023-07-24T08:13:56;4.05;;;2.40;;
13568;SDS011;6856;51.460;7.158;2023-07-24T08:16:30;3.92;;;2.15;;
13568;SDS011;6856;51.460;7.158;2023-07-24T08:19:04;3.53;;;2.53;;
13568;SDS011;6856;51.460;7.158;2023-07-24T08:21:37;4.55;;;2.67;;
13568;SDS011;6856;51.460;7.158;2023-07-24T08:24:13;3.67;;;2.40;;
13568;SDS011;6856;51.460;7.158;2023-07-24T08:26:46;3.37;;;2.30;;
13568;SDS011;6856;51.460;7.158;2023-07-24T08:29:20;3.75;;;2.38;;
13568;SDS011;6856;51.460;7.158;2023-07-24T08:31:54;3.38;;;2.40;;
13568;SDS011;6856;51.460;7.158;2023-07-24T08:34:28;2.97;;;1.90;;
13568;SDS011;6856;51.460;7.158;2023-07-24T08:37:03;2.85;;;2.03;;
13568;SDS011;6856;51.460;7.158;2023-07-24T08:39:39;3.63;;;2.22;;
13568;SDS011;6856;51.460;7.158;2023-07-24T08:42:13;3.57;;;2.13;;
13568;SDS011;6856;51.460;7.158;2023-07-24T08:44:47;3.90;;;2.17;;
13568;SDS011;6856;51.460;7.158;2023-07-24T08:47:22;3.05;;;2.10;;
13568;SDS011;6856;51.460;7.158;2023-07-24T08:49:57;2.50;;;2.15;;
13568;SDS011;6856;51.460;7.158;2023-07-24T08:52:32;3.35;;;2.05;;
13568;SDS011;6856;51.460;7.158;2023-07-24T08:55:09;3.63;;;2.10;;
13568;SDS011;6856;51.460;7.158;2023-07-24T08:57:44;3.03;;;2.00;;
13568;SDS011;6856;51.460;7.158;2023-07-24T09:00:18;3.15;;;1.98;;
13568;SDS011;6856;51.460;7.158;2023-07-24T09:02:52;3.03;;;2.13;;
13568;SDS011;6856;51.460;7.158;2023-07-24T09:05:26;2.80;;;1.65;;
13568;SDS011;6856;51.460;7.158;2023-07-24T09:07:59;2.78;;;1.98;;
13568;SDS011;6856;51.460;7.158;2023-07-24T09:10:35;3.23;;;2.00;;
13568;SDS011;6856;51.460;7.158;2023-07-24T09:13:11;3.17;;;2.00;;
13568;SDS011;6856;51.460;7.158;2023-07-24T09:15:45;2.97;;;2.00;;
13568;SDS011;6856;51.460;7.158;2023-07-24T09:18:19;3.00;;;2.13;;
13568;SDS011;6856;51.460;7.158;2023-07-24T09:20:53;2.72;;;2.00;;
13568;SDS011;6856;51.460;7.158;2023-07-24T09:23:29;3.83;;;1.90;;
13568;SDS011;6856;51.460;7.158;2023-07-24T09:26:08;2.78;;;1.90;;
13568;SDS011;6856;51.460;7.158;2023-07-24T09:28:50;2.65;;;1.85;;
13568;SDS011;6856;51.460;7.158;2023-07-24T09:31:33;2.78;;;1.92;;
13568;SDS011;6856;51.460;7.158;2023-07-24T09:34:13;2.28;;;1.55;;
13568;SDS011;6856;51.460;7.158;2023-07-24T09:36:48;3.03;;;2.15;;
13568;SDS011;6856;51.460;7.158;2023-07-24T09:39:22;3.00;;;1.95;;
13568;SDS011;6856;51.460;7.158;2023-07-24T09:42:04;2.97;;;2.00;;
13568;SDS011;6856;51.460;7.158;2023-07-24T09:44:38;2.83;;;1.85;;
13568;SDS011;6856;51.460;7.158;2023-07-24T09:47:12;2.85;;;1.92;;
13568;SDS011;6856;51.460;7.158;2023-07-24T09:49:49;2.63;;;1.77;;
13568;SDS011;6856;51.460;7.158;2023-07-24T09:52:26;4.00;;;2.30;;
13568;SDS011;6856;51.460;7.158;2023-07-24T09:55:06;3.17;;;2.28;;
13568;SDS011;6856;51.460;7.158;2023-07-24T09:57:46;2.78;;;1.83;;
13568;SDS011;6856;51.460;7.158;2023-07-24T10:00:26;2.53;;;1.83;;
13568;SDS011;6856;51.460;7.158;2023-07-24T10:03:01;2.60;;;1.90;;
13568;SDS011;6856;51.460;7.158;2023-07-24T10:05:36;3.47;;;1.95;;
13568;SDS011;6856;51.460;7.158;2023-07-24T10:08:10;2.03;;;1.65;;
13568;SDS011;6856;51.460;7.158;2023-07-24T10:10:44;2.58;;;1.80;;
13568;SDS011;6856;51.460;7.158;2023-07-24T10:13:20;2.65;;;1.50;;
13568;SDS011;6856;51.460;7.158;2023-07-24T10:15:56;2.20;;;1.80;;
13568;SDS011;6856;51.460;7.158;2023-07-24T10:18:30;2.47;;;1.70;;
13568;SDS011;6856;51.460;7.158;2023-07-24T10:21:05;2.20;;;1.67;;
13568;SDS011;6856;51.460;7.158;2023-07-24T10:23:43;2.38;;;1.75;;
13568;SDS011;6856;51.460;7.158;2023-07-24T10:26:24;1.73;;;1.50;;
13568;SDS011;6856;51.460;7.158;2023-07-24T10:29:00;3.88;;;2.15;;
13568;SDS011;6856;51.460;7.158;2023-07-24T10:31:34;3.40;;;2.03;;
13568;SDS011;6856;51.460;7.158;2023-07-24T10:34:08;2.60;;;1.70;;
13568;SDS011;6856;51.460;7.158;2023-07-24T10:36:42;3.47;;;2.03;;
13568;SDS011;6856;51.460;7.158;2023-07-24T10:39:16;2.90;;;1.88;;
13568;SDS011;6856;51.460;7.158;2023-07-24T10:41:52;2.70;;;2.00;;
13568;SDS011;6856;51.460;7.158;2023-07-24T10:44:31;2.53;;;1.98;;
13568;SDS011;6856;51.460;7.158;2023-07-24T10:47:05;2.05;;;1.70;;
13568;SDS011;6856;51.460;7.158;2023-07-24T10:49:42;2.80;;;2.03;;
13568;SDS011;6856;51.460;7.158;2023-07-24T10:52:27;2.50;;;2.08;;
13568;SDS011;6856;51.460;7.158;2023-07-24T10:55:01;2.33;;;1.98;;
13568;SDS011;6856;51.460;7.158;2023-07-24T10:57:37;3.80;;;2.42;;
13568;SDS011;6856;51.460;7.158;2023-07-24T11:00:14;2.50;;;1.92;;
13568;SDS011;6856;51.460;7.158;2023-07-24T11:02:51;2.58;;;2.08;;
13568;SDS011;6856;51.460;7.158;2023-07-24T11:05:26;2.33;;;1.95;;
13568;SDS011;6856;51.460;7.158;2023-07-24T11:08:00;2.22;;;1.83;;
13568;SDS011;6856;51.460;7.158;2023-07-24T11:10:44;2.25;;;1.83;;
13568;SDS011;6856;51.460;7.158;2023-07-24T11:13:20;3.30;;;2.15;;
13568;SDS011;6856;51.460;7.158;2023-07-24T11:16:03;2.45;;;1.90;;
13568;SDS011;6856;51.460;7.158;2023-07-24T11:18:44;3.40;;;2.05;;
13568;SDS011;6856;51.460;7.158;2023-07-24T11:21:29;3.03;;;2.15;;
13568;SDS011;6856;51.460;7.158;2023-07-24T11:24:06;3.15;;;2.25;;
13568;SDS011;6856;51.460;7.158;2023-07-24T11:26:42;4.00;;;2.10;;
13568;SDS011;6856;51.460;7.158;2023-07-24T11:29:18;3.03;;;2.10;;
13568;SDS011;6856;51.460;7.158;2023-07-24T11:31:54;3.35;;;2.40;;
13568;SDS011;6856;51.460;7.158;2023-07-24T11:34:29;4.07;;;2.90;;
13568;SDS011;6856;51.460;7.158;2023-07-24T11:37:04;2.45;;;2.00;;
13568;SDS011;6856;51.460;7.158;2023-07-24T11:39:39;2.55;;;2.00;;
13568;SDS011;6856;51.460;7.158;2023-07-24T11:42:13;2.67;;;2.13;;
13568;SDS011;6856;51.460;7.158;2023-07-24T11:44:48;3.10;;;2.25;;
13568;SDS011;6856;51.460;7.158;2023-07-24T11:47:24;3.00;;;2.25;;
13568;SDS011;6856;51.460;7.158;2023-07-24T11:49:58;2.67;;;2.10;;
13568;SDS011;6856;51.460;7.158;2023-07-24T11:52:37;3.63;;;2.30;;
13568;SDS011;6856;51.460;7.158;2023-07-24T11:55:15;3.10;;;2.30;;
13568;SDS011;6856;51.460;7.158;2023-07-24T11:57:57;3.47;;;2.13;;
13568;SDS011;6856;51.460;7.158;2023-07-24T12:00:33;2.97;;;2.30;;
13568;SDS011;6856;51.460;7.158;2023-07-24T12:03:11;3.50;;;2.20;;
13568;SDS011;6856;51.460;7.158;2023-07-24T12:05:45;3.50;;;1.98;;
13568;SDS011;6856;51.460;7.158;2023-07-24T12:08:28;4.10;;;1.58;;
13568;SDS011;6856;51.460;7.158;2023-07-24T12:11:15;3.63;;;1.25;;
13568;SDS011;6856;51.460;7.158;2023-07-24T12:13:50;1.55;;;1.08;;
13568;SDS011;6856;51.460;7.158;2023-07-24T12:16:25;1.50;;;1.07;;
13568;SDS011;6856;51.460;7.158;2023-07-24T12:19:03;0.90;;;0.73;;
13568;SDS011;6856;51.460;7.158;2023-07-24T12:21:39;1.08;;;0.55;;
13568;SDS011;6856;51.460;7.158;2023-07-24T12:24:13;1.67;;;0.90;;
13568;SDS011;6856;51.460;7.158;2023-07-24T12:26:47;2.20;;;0.90;;
13568;SDS011;6856;51.460;7.158;2023-07-24T12:29:21;1.10;;;0.60;;
13568;SDS011;6856;51.460;7.158;2023-07-24T12:31:55;2.50;;;1.00;;
13568;SDS011;6856;51.460;7.158;2023-07-24T12:34:30;2.27;;;1.10;;
13568;SDS011;6856;51.460;7.158;2023-07-24T12:37:04;1.03;;;0.70;;
13568;SDS011;6856;51.460;7.158;2023-07-24T12:39:39;1.50;;;1.20;;
13568;SDS011;6856;51.460;7.158;2023-07-24T12:42:13;1.67;;;1.00;;
13568;SDS011;6856;51.460;7.158;2023-07-24T12:44:47;1.37;;;0.90;;
13568;SDS011;6856;51.460;7.158;2023-07-24T12:47:21;1.95;;;1.10;;
13568;SDS011;6856;51.460;7.158;2023-07-24T12:49:56;1.47;;;0.77;;
13568;SDS011;6856;51.460;7.158;2023-07-24T12:52:31;1.83;;;1.00;;
13568;SDS011;6856;51.460;7.158;2023-07-24T12:55:05;1.70;;;1.02;;
13568;SDS011;6856;51.460;7.158;2023-07-24T12:57:39;0.75;;;0.70;;
13568;SDS011;6856;51.460;7.158;2023-07-24T13:00:13;1.67;;;0.80;;
13568;SDS011;6856;51.460;7.158;2023-07-24T13:02:48;0.93;;;0.80;;
13568;SDS011;6856;51.460;7.158;2023-07-24T13:05:23;1.03;;;0.80;;
13568;SDS011;6856;51.460;7.158;2023-07-24T13:07:57;1.07;;;0.70;;
13568;SDS011;6856;51.460;7.158;2023-07-24T13:10:30;1.33;;;0.93;;
13568;SDS011;6856;51.460;7.158;2023-07-24T13:13:06;1.90;;;0.93;;
13568;SDS011;6856;51.460;7.158;2023-07-24T13:15:40;0.60;;;0.60;;
13568;SDS011;6856;51.460;7.158;2023-07-24T13:18:14;1.20;;;0.90;;
13568;SDS011;6856;51.460;7.158;2023-07-24T13:21:00;1.10;;;0.90;;
13568;SDS011;6856;51.460;7.158;2023-07-24T13:23:34;1.23;;;0.82;;
13568;SDS011;6856;51.460;7.158;2023-07-24T13:26:08;1.42;;;0.93;;
13568;SDS011;6856;51.460;7.158;2023-07-24T13:28:44;1.52;;;1.17;;
13568;SDS011;6856;51.460;7.158;2023-07-24T13:31:18;1.80;;;1.02;;
13568;SDS011;6856;51.460;7.158;2023-07-24T13:33:54;1.58;;;1.25;;
13568;SDS011;6856;51.460;7.158;2023-07-24T13:36:29;1.38;;;0.90;;
13568;SDS011;6856;51.460;7.158;2023-07-24T13:39:04;1.23;;;0.93;;
13568;SDS011;6856;51.460;7.158;2023-07-24T13:41:39;1.45;;;1.02;;
13568;SDS011;6856;51.460;7.158;2023-07-24T13:44:13;1.70;;;1.10;;
13568;SDS011;6856;51.460;7.158;2023-07-24T13:46:47;1.10;;;1.00;;
13568;SDS011;6856;51.460;7.158;2023-07-24T13:49:20;1.17;;;1.00;;
13568;SDS011;6856;51.460;7.158;2023-07-24T13:51:56;1.33;;;1.00;;
13568;SDS011;6856;51.460;7.158;2023-07-24T13:54:29;1.27;;;1.00;;
13568;SDS011;6856;51.460;7.158;2023-07-24T13:57:03;1.55;;;1.17;;
13568;SDS011;6856;51.460;7.158;2023-07-24T13:59:39;1.88;;;1.40;;
13568;SDS011;6856;51.460;7.158;2023-07-24T14:02:13;1.50;;;1.20;;
13568;SDS011;6856;51.460;7.158;2023-07-24T14:04:46;2.45;;;1.10;;
13568;SDS011;6856;51.460;7.158;2023-07-24T14:07:23;3.90;;;1.27;;
13568;SDS011;6856;51.460;7.158;2023-07-24T14:09:58;1.58;;;1.48;;
13568;SDS011;6856;51.460;7.158;2023-07-24T14:12:31;4.10;;;1.60;;
13568;SDS011;6856;51.460;7.158;2023-07-24T14:15:06;1.20;;;1.10;;
13568;SDS011;6856;51.460;7.158;2023-07-24T14:17:40;1.95;;;1.30;;
13568;SDS011;6856;51.460;7.158;2023-07-24T14:20:15;1.70;;;1.45;;
13568;SDS011;6856;51.460;7.158;2023-07-24T14:22:51;3.03;;;1.20;;
13568;SDS011;6856;51.460;7.158;2023-07-24T14:25:25;1.73;;;1.40;;
13568;SDS011;6856;51.460;7.158;2023-07-24T14:27:59;2.35;;;1.60;;
13568;SDS011;6856;51.460;7.158;2023-07-24T14:30:34;1.58;;;1.33;;
13568;SDS011;6856;51.460;7.158;2023-07-24T14:33:07;3.58;;;1.40;;
13568;SDS011;6856;51.460;7.158;2023-07-24T14:35:42;1.48;;;1.13;;
13568;SDS011;6856;51.460;7.158;2023-07-24T14:38:17;2.17;;;1.60;;
13568;SDS011;6856;51.460;7.158;2023-07-24T14:40:50;1.88;;;1.40;;
13568;SDS011;6856;51.460;7.158;2023-07-24T14:43:24;1.55;;;1.30;;
13568;SDS011;6856;51.460;7.158;2023-07-24T14:45:58;2.47;;;1.73;;
13568;SDS011;6856;51.460;7.158;2023-07-24T14:48:32;1.75;;;1.48;;
13568;SDS011;6856;51.460;7.158;2023-07-24T14:51:06;1.88;;;1.60;;
13568;SDS011;6856;51.460;7.158;2023-07-24T14:53:41;2.53;;;1.88;;
13568;SDS011;6856;51.460;7.158;2023-07-24T14:56:15;2.30;;;1.73;;
13568;SDS011;6856;51.460;7.158;2023-07-24T14:58:49;2.95;;;1.90;;
13568;SDS011;6856;51.460;7.158;2023-07-24T15:01:23;3.05;;;2.10;;
13568;SDS011;6856;51.460;7.158;2023-07-24T15:04:01;1.88;;;1.48;;
13568;SDS011;6856;51.460;7.158;2023-07-24T15:06:35;2.58;;;1.90;;
13568;SDS011;6856;51.460;7.158;2023-07-24T15:09:11;2.40;;;1.85;;
13568;SDS011;6856;51.460;7.158;2023-07-24T15:11:44;2.17;;;1.80;;
13568;SDS011;6856;51.460;7.158;2023-07-24T15:14:19;3.08;;;2.15;;
13568;SDS011;6856;51.460;7.158;2023-07-24T15:16:53;3.50;;;2.20;;
13568;SDS011;6856;51.460;7.158;2023-07-24T15:19:26;2.70;;;2.10;;
13568;SDS011;6856;51.460;7.158;2023-07-24T15:22:00;2.60;;;1.90;;
13568;SDS011;6856;51.460;7.158;2023-07-24T15:24:36;3.25;;;1.77;;
13568;SDS011;6856;51.460;7.158;2023-07-24T15:27:09;1.70;;;1.30;;
13568;SDS011;6856;51.460;7.158;2023-07-24T15:29:43;1.77;;;1.23;;
13568;SDS011;6856;51.460;7.158;2023-07-24T15:32:18;1.42;;;1.25;;
13568;SDS011;6856;51.460;7.158;2023-07-24T15:34:53;2.10;;;1.42;;
13568;SDS011;6856;51.460;7.158;2023-07-24T15:37:27;1.80;;;1.23;;
13568;SDS011;6856;51.460;7.158;2023-07-24T15:40:04;1.63;;;1.52;;
13568;SDS011;6856;51.460;7.158;2023-07-24T15:42:40;2.05;;;1.38;;
13568;SDS011;6856;51.460;7.158;2023-07-24T15:45:14;2.15;;;1.60;;
13568;SDS011;6856;51.460;7.158;2023-07-24T15:47:47;1.45;;;1.20;;
13568;SDS011;6856;51.460;7.158;2023-07-24T15:50:21;2.28;;;1.48;;
13568;SDS011;6856;51.460;7.158;2023-07-24T15:52:55;3.10;;;1.45;;
13568;SDS011;6856;51.460;7.158;2023-07-24T15:55:30;2.17;;;1.58;;
13568;SDS011;6856;51.460;7.158;2023-07-24T15:58:04;1.38;;;1.25;;
13568;SDS011;6856;51.460;7.158;2023-07-24T16:00:38;2.50;;;1.52;;
13568;SDS011;6856;51.460;7.158;2023-07-24T16:03:11;2.03;;;1.60;;
13568;SDS011;6856;51.460;7.158;2023-07-24T16:05:45;1.83;;;1.52;;
13568;SDS011;6856;51.460;7.158;2023-07-24T16:08:19;2.05;;;1.60;;
13568;SDS011;6856;51.460;7.158;2023-07-24T16:10:54;1.90;;;1.58;;
13568;SDS011;6856;51.460;7.158;2023-07-24T16:13:29;2.13;;;1.67;;
13568;SDS011;6856;51.460;7.158;2023-07-24T16:16:03;2.13;;;1.70;;
13568;SDS011;6856;51.460;7.158;2023-07-24T16:18:38;2.20;;;1.80;;
13568;SDS011;6856;51.460;7.158;2023-07-24T16:21:13;2.53;;;1.90;;
13568;SDS011;6856;51.460;7.158;2023-07-24T16:23:47;2.83;;;2.30;;
13568;SDS011;6856;51.460;7.158;2023-07-24T16:26:24;3.70;;;2.15;;
13568;SDS011;6856;51.460;7.158;2023-07-24T16:28:59;2.58;;;1.98;;
13568;SDS011;6856;51.460;7.158;2023-07-24T16:31:33;4.13;;;2.85;;
13568;SDS011;6856;51.460;7.158;2023-07-24T16:34:07;3.70;;;2.70;;
13568;SDS011;6856;51.460;7.158;2023-07-24T16:36:41;2.83;;;2.40;;
13568;SDS011;6856;51.460;7.158;2023-07-24T16:39:16;4.25;;;2.35;;
13568;SDS011;6856;51.460;7.158;2023-07-24T16:41:52;3.37;;;3.07;;
13568;SDS011;6856;51.460;7.158;2023-07-24T16:44:26;4.18;;;2.78;;
13568;SDS011;6856;51.460;7.158;2023-07-24T16:47:08;2.60;;;2.33;;
13568;SDS011;6856;51.460;7.158;2023-07-24T16:49:42;3.35;;;2.58;;
13568;SDS011;6856;51.460;7.158;2023-07-24T16:52:16;4.07;;;2.95;;
13568;SDS011;6856;51.460;7.158;2023-07-24T16:54:50;4.47;;;3.05;;
13568;SDS011;6856;51.460;7.158;2023-07-24T16:57:26;3.00;;;2.47;;
13568;SDS011;6856;51.460;7.158;2023-07-24T17:00:01;3.42;;;2.80;;
13568;SDS011;6856;51.460;7.158;2023-07-24T17:02:35;3.97;;;2.70;;
13568;SDS011;6856;51.460;7.158;2023-07-24T17:05:10;3.50;;;2.70;;